Time;durP1;ratioP1;P1;durP2;ratioP2;P2;SDS_P1;SDS_P2;PMS_P1;PMS_P2;Temp;Humidity;BMP_temperature;BMP_pressure;BME280_temperature;BME280_humidity;BME280_pressure;Samples;Min_cycle;Max_cycle;Signal;HPM_P1;HPM_P2
2020/12/27 00:00:42;;;;;;;2.13;1.20;;;;;;;16.55;61.68;99970.50;4841380;29;20090;-77
2020/12/27 00:03:07;;;;;;;3.28;1.20;;;;;;;16.53;61.69;99956.66;4840551;29;20469;-77
2020/12/27 00:05:33;;;;;;;2.70;1.27;;;;;;;16.53;61.90;99935.91;4827940;29;20121;-77
2020/12/27 00:07:59;;;;;;;2.75;1.20;;;;;;;16.53;61.82;99943.69;4842693;29;20089;-77
2020/12/27 00:10:24;;;;;;;3.17;1.35;;;;;;;16.53;61.60;99946.28;4843616;29;20073;-78
2020/12/27 00:12:49;;;;;;;2.38;1.02;;;;;;;16.52;61.82;99936.75;4844174;29;20061;-77
2020/12/27 00:15:15;;;;;;;4.97;1.20;;;;;;;16.54;61.58;99902.97;4820698;29;20126;-78
2020/12/27 00:17:42;;;;;;;2.50;0.90;;;;;;;16.52;61.69;99908.19;4846331;29;20038;-77
2020/12/27 00:20:08;;;;;;;2.08;1.02;;;;;;;16.51;61.84;99887.47;4842761;29;20390;-78
2020/12/27 00:22:34;;;;;;;2.03;1.05;;;;;;;16.51;61.43;99885.72;4840832;29;20018;-77
2020/12/27 00:24:59;;;;;;;2.95;0.98;;;;;;;16.51;61.60;99866.69;4796218;29;20447;-77
2020/12/27 00:27:24;;;;;;;2.45;1.02;;;;;;;16.50;61.69;99868.41;4832831;29;20046;-77
2020/12/27 00:29:50;;;;;;;2.92;1.20;;;;;;;16.50;61.52;99871.00;4815970;29;20026;-78
2020/12/27 00:32:15;;;;;;;2.22;1.00;;;;;;;16.51;61.73;99864.09;4834991;29;20030;-77
2020/12/27 00:34:40;;;;;;;1.88;0.93;;;;;;;16.50;61.57;99865.81;4829059;29;20041;-77
2020/12/27 00:37:05;;;;;;;2.08;0.90;;;;;;;16.50;61.73;99857.19;4830677;29;20057;-78
2020/12/27 00:39:31;;;;;;;4.20;1.40;;;;;;;16.50;61.37;99844.19;4815715;29;20078;-77
2020/12/27 00:42:00;;;;;;;1.75;0.85;;;;;;;16.50;61.59;99839.84;4843207;29;20094;-77
2020/12/27 00:44:26;;;;;;;2.05;1.02;;;;;;;16.49;61.50;99832.09;4839693;29;20077;-77
2020/12/27 00:46:52;;;;;;;1.83;1.08;;;;;;;16.49;61.83;99819.97;4834891;29;20121;-77
2020/12/27 00:49:18;;;;;;;2.28;0.95;;;;;;;16.49;61.57;99814.78;4827455;29;20390;-77
2020/12/27 00:51:44;;;;;;;2.15;0.80;;;;;;;16.50;61.55;99789.66;4842274;29;20030;-77
2020/12/27 00:54:10;;;;;;;2.25;1.00;;;;;;;16.50;61.50;99771.47;4833870;29;20037;-77
2020/12/27 00:56:35;;;;;;;2.13;0.85;;;;;;;16.49;61.49;99754.19;4841963;29;20076;-77
2020/12/27 00:59:01;;;;;;;1.55;0.95;;;;;;;16.49;61.69;99752.44;4825662;29;20037;-77
2020/12/27 01:01:27;;;;;;;1.67;0.90;;;;;;;16.50;61.41;99753.28;4841856;29;20037;-77
2020/12/27 01:03:52;;;;;;;1.70;1.15;;;;;;;16.49;61.45;99739.47;4827114;29;20034;-77
2020/12/27 01:06:28;;;;;;;1.55;1.00;;;;;;;16.48;61.57;99718.72;4839002;29;20066;-77
2020/12/27 01:08:54;;;;;;;3.08;1.10;;;;;;;16.47;61.32;99691.06;4843301;29;20140;-77
2020/12/27 01:11:20;;;;;;;1.45;0.80;;;;;;;16.47;61.37;99665.09;4843597;29;20390;-77
2020/12/27 01:13:45;;;;;;;1.58;0.90;;;;;;;16.49;61.64;99666.75;4840049;29;20026;-77
2020/12/27 01:16:18;;;;;;;1.58;0.82;;;;;;;16.48;61.33;99666.78;4826576;29;20038;-78
2020/12/27 01:18:45;;;;;;;1.52;0.90;;;;;;;16.48;61.27;99678.00;4843562;29;20093;-77
2020/12/27 01:21:10;;;;;;;2.00;1.00;;;;;;;16.47;61.51;99645.16;4827474;29;20066;-77
2020/12/27 01:23:36;;;;;;;2.60;0.90;;;;;;;16.48;61.22;99646.84;4841572;29;20529;-77
2020/12/27 01:26:01;;;;;;;1.58;0.95;;;;;;;16.48;61.18;99636.47;4827535;29;20414;-77
2020/12/27 01:28:26;;;;;;;1.92;1.00;;;;;;;16.47;61.05;99623.53;4837099;29;20037;-77
2020/12/27 01:30:52;;;;;;;3.35;1.00;;;;;;;16.47;61.28;99619.19;4841611;29;20102;-77
2020/12/27 01:33:17;;;;;;;0.95;0.75;;;;;;;16.48;61.18;99620.88;4841871;29;20098;-77
2020/12/27 01:35:44;;;;;;;4.15;0.80;;;;;;;16.47;61.35;99603.63;4841814;29;20038;-77
2020/12/27 01:38:10;;;;;;;1.30;0.80;;;;;;;16.48;61.27;99601.88;4841850;29;20033;-77
2020/12/27 01:40:35;;;;;;;1.67;0.85;;;;;;;16.47;61.27;99590.63;4826617;29;20030;-77
2020/12/27 01:43:00;;;;;;;2.33;1.10;;;;;;;16.45;61.13;99584.63;4841325;29;20040;-77
2020/12/27 01:45:26;;;;;;;2.28;1.08;;;;;;;16.46;61.36;99586.31;4826524;29;20064;-77
2020/12/27 01:47:52;;;;;;;1.77;0.90;;;;;;;16.47;60.90;99569.84;4834887;29;20385;-77
2020/12/27 01:50:19;;;;;;;1.42;1.10;;;;;;;16.45;61.20;99564.69;4841825;29;20462;-77
2020/12/27 01:52:44;;;;;;;1.70;0.90;;;;;;;16.47;61.03;99556.88;4843062;29;20038;-77
2020/12/27 01:55:12;;;;;;;1.35;0.77;;;;;;;16.47;60.96;99567.25;4842928;29;20086;-77
2020/12/27 01:57:46;;;;;;;1.45;0.80;;;;;;;16.46;61.20;99539.56;4841674;29;20038;-77
2020/12/27 02:00:12;;;;;;;1.20;0.80;;;;;;;16.47;61.01;99536.09;4842664;29;20519;-77
2020/12/27 02:02:37;;;;;;;2.47;0.90;;;;;;;16.48;61.02;99522.22;4841638;29;20137;-77
2020/12/27 02:05:03;;;;;;;1.73;0.82;;;;;;;16.47;60.93;99517.91;4841333;29;20094;-77
2020/12/27 02:07:29;;;;;;;1.83;0.80;;;;;;;16.47;60.88;99497.16;4842360;29;20097;-78
2020/12/27 02:09:57;;;;;;;1.40;0.80;;;;;;;16.45;61.01;99494.59;4841477;29;20037;-77
2020/12/27 02:12:25;;;;;;;1.73;0.90;;;;;;;16.46;60.76;99479.84;4836905;29;20562;-77
2020/12/27 02:14:53;;;;;;;1.05;0.80;;;;;;;16.49;60.93;99468.56;4837035;29;20109;-77
2020/12/27 02:17:19;;;;;;;1.10;0.75;;;;;;;16.47;60.82;99439.19;4841750;29;20042;-77
2020/12/27 02:19:44;;;;;;;2.63;1.00;;;;;;;16.46;60.73;99453.88;4814219;29;20046;-77
2020/12/27 02:22:09;;;;;;;1.65;1.02;;;;;;;16.45;60.73;99439.22;4835405;29;20167;-77
2020/12/27 02:24:35;;;;;;;0.77;0.68;;;;;;;16.48;60.79;99440.88;4825661;29;20061;-78
2020/12/27 02:27:02;;;;;;;1.33;0.75;;;;;;;16.45;60.70;99414.09;4825398;29;20040;-77
2020/12/27 02:29:28;;;;;;;1.55;0.90;;;;;;;16.47;60.83;99418.41;4825656;29;20041;-77
2020/12/27 02:31:54;;;;;;;1.30;0.90;;;;;;;16.46;60.56;99414.94;4818225;29;20034;-77
2020/12/27 02:34:20;;;;;;;1.92;0.90;;;;;;;16.47;60.47;99395.88;4823075;29;20037;-77
2020/12/27 02:36:46;;;;;;;1.50;0.98;;;;;;;16.46;60.52;99404.56;4822396;29;20486;-77
2020/12/27 02:39:13;;;;;;;0.98;0.75;;;;;;;16.46;60.75;99401.94;4838013;29;20042;-77
2020/12/27 02:41:39;;;;;;;2.03;1.00;;;;;;;16.45;60.64;99359.56;4843532;29;20064;-78
2020/12/27 02:44:06;;;;;;;1.55;0.82;;;;;;;16.45;60.73;99358.72;4843073;29;20125;-78
2020/12/27 02:46:32;;;;;;;1.15;0.70;;;;;;;16.47;60.90;99348.31;4845121;29;20058;-78
2020/12/27 02:48:57;;;;;;;1.73;0.80;;;;;;;16.46;60.48;99352.63;4843087;29;20573;-78
2020/12/27 02:51:24;;;;;;;1.52;0.90;;;;;;;16.44;60.50;99331.06;4846584;29;20068;-78
2020/12/27 02:53:50;;;;;;;1.98;1.00;;;;;;;16.47;60.39;99317.13;4846403;29;20037;-78
2020/12/27 02:56:21;;;;;;;1.67;0.93;;;;;;;16.48;60.85;99298.06;4845536;29;20116;-78
2020/12/27 02:58:47;;;;;;;1.95;1.00;;;;;;;16.48;60.68;99295.47;4845186;29;20177;-78
2020/12/27 03:01:13;;;;;;;1.75;0.90;;;;;;;16.47;60.39;99288.59;4846393;29;20038;-78
2020/12/27 03:03:39;;;;;;;0.90;0.70;;;;;;;16.46;60.26;99290.31;4851205;29;20034;-78
2020/12/27 03:06:05;;;;;;;1.00;0.80;;;;;;;16.48;60.57;99280.72;4847226;29;20102;-78
2020/12/27 03:08:30;;;;;;;0.88;0.70;;;;;;;16.48;60.94;99272.09;4830275;29;20054;-78
2020/12/27 03:10:55;;;;;;;1.48;1.00;;;;;;;16.47;60.61;99229.69;4846540;29;20037;-78
2020/12/27 03:13:21;;;;;;;1.13;0.77;;;;;;;16.46;60.29;99253.94;4845135;29;20385;-78
2020/12/27 03:15:46;;;;;;;3.28;0.93;;;;;;;16.47;60.57;99224.50;4845550;29;20040;-78
2020/12/27 03:18:12;;;;;;;1.08;0.77;;;;;;;16.48;60.25;99240.94;4829138;29;20061;-78
2020/12/27 03:20:37;;;;;;;1.58;0.90;;;;;;;16.47;60.74;99227.09;4842732;29;20403;-78
2020/12/27 03:23:03;;;;;;;1.42;0.77;;;;;;;16.47;61.27;99205.50;4844864;29;20049;-78
2020/12/27 03:25:28;;;;;;;2.25;0.80;;;;;;;16.47;60.70;99219.31;4828880;29;20041;-78
2020/12/27 03:27:53;;;;;;;1.15;0.68;;;;;;;16.45;61.03;99203.78;4843406;29;20034;-78
2020/12/27 03:30:19;;;;;;;1.35;0.70;;;;;;;16.47;60.42;99190.75;4843828;29;20033;-78
2020/12/27 03:32:44;;;;;;;2.28;0.80;;;;;;;16.48;60.49;99191.59;4845202;29;20053;-78
2020/12/27 03:35:10;;;;;;;1.38;0.70;;;;;;;16.47;60.85;99175.19;4830958;29;20034;-78
2020/12/27 03:37:38;;;;;;;1.85;0.90;;;;;;;16.47;60.44;99161.34;4844333;29;20041;-78
2020/12/27 03:40:08;;;;;;;1.63;0.80;;;;;;;16.44;59.82;99139.78;4847006;29;20046;-78
2020/12/27 03:42:33;;;;;;;1.02;0.65;;;;;;;16.44;60.11;99131.16;4848454;29;20295;-78
2020/12/27 03:44:59;;;;;;;0.70;0.60;;;;;;;16.45;60.22;99123.28;4828196;29;20375;-78
2020/12/27 03:47:24;;;;;;;1.85;0.70;;;;;;;16.46;60.37;99111.16;4845891;29;20030;-78
2020/12/27 03:49:49;;;;;;;1.75;0.75;;;;;;;16.47;60.54;99112.88;4845902;29;20030;-78
2020/12/27 03:52:15;;;;;;;1.02;0.77;;;;;;;16.47;60.43;99084.31;4844708;29;20405;-77
2020/12/27 03:54:40;;;;;;;1.25;0.70;;;;;;;16.47;60.86;99073.06;4815078;29;20508;-78
2020/12/27 03:57:05;;;;;;;1.45;0.82;;;;;;;16.46;60.48;99077.41;4829869;29;20034;-78
2020/12/27 03:59:31;;;;;;;1.15;0.80;;;;;;;16.47;61.19;99084.31;4829578;29;20034;-78
2020/12/27 04:01:56;;;;;;;1.42;0.70;;;;;;;16.47;60.37;99049.72;4830248;29;20070;-78
2020/12/27 04:04:21;;;;;;;1.45;0.80;;;;;;;16.48;60.33;99046.19;4845889;29;20030;-78
2020/12/27 04:06:47;;;;;;;1.10;0.80;;;;;;;16.46;60.67;99028.06;4845733;29;20062;-78
2020/12/27 04:09:12;;;;;;;1.17;0.90;;;;;;;16.47;61.59;99000.38;4811620;29;20037;-78
2020/12/27 04:11:37;;;;;;;1.23;0.70;;;;;;;16.47;61.33;98990.84;4827210;29;20061;-78
2020/12/27 04:14:03;;;;;;;1.23;0.63;;;;;;;16.44;60.20;98965.84;4814761;29;20049;-78
2020/12/27 04:16:28;;;;;;;0.90;0.63;;;;;;;16.47;60.79;98974.41;4834379;29;20030;-78
2020/12/27 04:18:54;;;;;;;0.90;0.60;;;;;;;16.46;61.40;98937.19;4832645;29;20083;-78
2020/12/27 04:21:19;;;;;;;0.95;0.60;;;;;;;16.47;61.01;98941.50;4831179;29;20026;-78
2020/12/27 04:23:44;;;;;;;0.93;0.75;;;;;;;16.48;60.54;98939.75;4847716;29;20034;-78
2020/12/27 04:26:14;;;;;;;1.00;0.70;;;;;;;16.47;60.75;98930.28;4811751;29;20042;-78
2020/12/27 04:28:39;;;;;;;1.95;0.75;;;;;;;16.47;60.68;98909.50;4849399;29;20386;-78
2020/12/27 04:31:04;;;;;;;1.30;0.80;;;;;;;16.46;60.04;98911.22;4848980;29;20045;-78
2020/12/27 04:33:30;;;;;;;1.40;0.80;;;;;;;16.46;59.94;98890.47;4849069;29;20033;-78
2020/12/27 04:35:55;;;;;;;0.95;0.70;;;;;;;16.45;61.13;98879.25;4817059;29;20062;-78
2020/12/27 04:38:20;;;;;;;1.08;0.70;;;;;;;16.45;60.68;98853.28;4848563;29;20037;-78
2020/12/27 04:40:46;;;;;;;0.68;0.60;;;;;;;16.45;60.45;98839.47;4848629;29;20061;-78
2020/12/27 04:43:14;;;;;;;1.20;0.55;;;;;;;16.45;60.79;98832.50;4839157;29;20034;-78
2020/12/27 04:45:40;;;;;;;0.70;0.50;;;;;;;16.45;60.12;98822.13;4823302;29;20033;-78
2020/12/27 04:48:07;;;;;;;1.00;0.60;;;;;;;16.45;60.71;98809.16;4848313;29;20470;-78
2020/12/27 04:50:32;;;;;;;1.35;0.88;;;;;;;16.45;60.21;98783.19;4848684;29;20070;-78
2020/12/27 04:52:59;;;;;;;0.88;0.60;;;;;;;16.47;60.83;98770.16;4847949;29;20045;-78
2020/12/27 04:55:24;;;;;;;0.50;0.50;;;;;;;16.45;60.46;98778.00;4847975;29;20038;-78
2020/12/27 04:57:50;;;;;;;1.23;0.70;;;;;;;16.47;60.92;98764.13;4846899;29;20033;-78
2020/12/27 05:00:17;;;;;;;0.95;0.50;;;;;;;16.47;61.20;98730.38;4845694;29;20055;-78
2020/12/27 05:02:42;;;;;;;0.75;0.60;;;;;;;16.45;60.42;98735.63;4838519;29;20516;-78
2020/12/27 05:05:14;;;;;;;0.93;0.70;;;;;;;16.45;60.95;98741.66;4821329;29;20117;-78
2020/12/27 05:07:43;;;;;;;0.80;0.70;;;;;;;16.45;61.22;98736.44;4826235;29;20054;-78
2020/12/27 05:10:09;;;;;;;1.77;0.60;;;;;;;16.46;60.70;98737.28;4840809;29;20041;-78
2020/12/27 05:12:36;;;;;;;0.93;0.50;;;;;;;16.46;61.27;98708.72;4845574;29;20030;-78
2020/12/27 05:15:03;;;;;;;1.02;0.52;;;;;;;16.45;61.07;98692.31;4828961;29;20026;-78
2020/12/27 05:17:30;;;;;;;0.70;0.50;;;;;;;16.47;61.23;98696.63;4845553;29;20033;-78
2020/12/27 05:19:55;;;;;;;1.05;0.70;;;;;;;16.45;60.37;98691.47;4846669;29;20129;-78
2020/12/27 05:22:21;;;;;;;0.77;0.50;;;;;;;16.47;60.92;98686.25;4845837;29;20148;-79
2020/12/27 05:24:50;;;;;;;1.45;0.60;;;;;;;16.47;61.37;98660.28;4860100;29;20046;-78
2020/12/27 05:27:16;;;;;;;0.90;0.57;;;;;;;16.46;60.91;98651.63;4847380;29;20057;-78
2020/12/27 05:29:42;;;;;;;0.60;0.50;;;;;;;16.46;61.01;98630.84;4843894;29;20026;-78
2020/12/27 05:32:09;;;;;;;0.98;0.57;;;;;;;16.43;59.40;98628.41;4842219;29;20546;-78
2020/12/27 05:34:35;;;;;;;1.08;0.50;;;;;;;16.46;61.50;98636.03;4843727;29;20037;-78
2020/12/27 05:37:03;;;;;;;0.98;0.60;;;;;;;16.46;60.48;98615.28;4845206;29;20044;-78
2020/12/27 05:39:30;;;;;;;2.42;0.50;;;;;;;16.45;61.42;98606.66;4844931;29;20034;-78
2020/12/27 05:42:06;;;;;;;0.82;0.57;;;;;;;16.44;60.90;98617.97;4824302;29;20062;-78
2020/12/27 05:44:35;;;;;;;1.77;0.68;;;;;;;16.44;61.17;98593.75;4838667;29;20036;-78
2020/12/27 05:47:01;;;;;;;1.30;0.60;;;;;;;16.45;61.52;98596.25;4847462;29;20059;-80
2020/12/27 05:49:27;;;;;;;0.57;0.50;;;;;;;16.46;60.77;98589.31;4843300;29;20456;-78
2020/12/27 05:51:57;;;;;;;1.02;0.60;;;;;;;16.47;61.60;98585.00;4842127;29;20026;-79
2020/12/27 05:54:32;;;;;;;0.93;0.60;;;;;;;16.45;61.25;98559.91;4827801;29;20065;-79
2020/12/27 05:56:59;;;;;;;0.60;0.50;;;;;;;16.46;61.32;98568.53;4840019;29;20034;-78
2020/12/27 05:59:32;;;;;;;0.50;0.50;;;;;;;16.47;61.20;98535.66;4838360;29;20045;-79
2020/12/27 06:01:59;;;;;;;0.77;0.60;;;;;;;16.45;61.63;98515.78;4841259;29;20030;-79
2020/12/27 06:05:00;;;;;;;0.50;0.50;;;;;;;16.45;60.50;98520.16;4818721;29;20030;-79
2020/12/27 06:07:37;;;;;;;0.68;0.50;;;;;;;16.44;61.03;98498.53;4833292;29;20102;-78
2020/12/27 06:10:05;;;;;;;0.55;0.50;;;;;;;16.44;61.35;98466.56;4855159;29;20042;-81
2020/12/27 06:13:13;;;;;;;0.60;0.60;;;;;;;16.46;60.77;98508.84;4849338;29;20028;-81
2020/12/27 06:15:57;;;;;;;0.95;0.50;;;;;;;16.48;61.25;98506.19;4850380;29;20038;-81
2020/12/27 06:18:29;;;;;;;0.90;0.50;;;;;;;16.50;61.46;98501.78;4847176;29;20052;-79
2020/12/27 06:21:11;;;;;;;0.68;0.50;;;;;;;16.51;60.81;98485.31;4849850;29;20033;-79
2020/12/27 06:23:38;;;;;;;0.40;0.40;;;;;;;16.51;61.16;98456.75;4828032;29;20034;-79
2020/12/27 06:26:05;;;;;;;0.40;0.40;;;;;;;16.52;60.67;98422.06;4846344;29;20033;-79
2020/12/27 06:28:31;;;;;;;0.57;0.40;;;;;;;16.54;60.59;98431.47;4840801;29;20061;-78
2020/12/27 06:31:02;;;;;;;0.70;0.50;;;;;;;16.55;60.49;98438.38;4845498;29;20030;-78
2020/12/27 06:33:34;;;;;;;0.52;0.30;;;;;;;16.56;60.36;98427.06;4845362;29;20030;-79
2020/12/27 06:35:59;;;;;;;0.88;0.50;;;;;;;16.58;60.18;98432.19;4844799;29;20430;-79
2020/12/27 06:38:25;;;;;;;0.30;0.30;;;;;;;16.58;60.46;98414.03;4852350;29;20049;-80
2020/12/27 06:41:04;;;;;;;0.77;0.40;;;;;;;16.58;60.44;98407.06;4844534;29;20069;-82
2020/12/27 06:43:29;;;;;;;0.90;0.60;;;;;;;16.56;60.30;98375.13;4856524;29;20034;-82
2020/12/27 06:49:21;;;;;;;2.90;0.50;;;;;;;16.62;60.10;98397.41;4860441;29;20070;-81
2020/12/27 06:51:46;;;;;;;4.03;0.50;;;;;;;16.71;59.14;98359.81;4857496;29;20030;-76
2020/12/27 06:54:15;;;;;;;0.98;0.57;;;;;;;16.75;58.85;98332.78;4856689;29;20512;-76
2020/12/27 06:56:42;;;;;;;1.45;0.57;;;;;;;16.78;59.00;98327.44;4847497;29;20091;-77
2020/12/27 06:59:07;;;;;;;1.80;0.60;;;;;;;16.77;59.18;98312.78;4845575;29;20038;-76
2020/12/27 07:01:34;;;;;;;2.05;0.43;;;;;;;16.78;59.10;98327.44;4841546;29;20041;-77
2020/12/27 07:04:14;;;;;;;2.13;0.50;;;;;;;16.80;58.91;98317.84;4842548;29;20442;-77
2020/12/27 07:06:45;;;;;;;0.52;0.40;;;;;;;16.80;59.16;98308.28;4844552;29;20557;-77
2020/12/27 07:09:11;;;;;;;4.07;0.50;;;;;;;16.80;59.10;98297.06;4834836;29;20121;-77
2020/12/27 07:11:36;;;;;;;4.97;0.60;;;;;;;16.82;59.01;98269.28;4827406;29;20448;-77
2020/12/27 07:14:03;;;;;;;1.88;0.32;;;;;;;16.81;58.98;98259.78;4812446;29;20041;-77
2020/12/27 07:16:54;;;;;;;1.33;0.40;;;;;;;16.81;59.13;98272.78;4840407;29;20102;-77
2020/12/27 07:19:19;;;;;;;1.20;0.47;;;;;;;16.82;59.12;98258.88;4836985;29;20057;-77
2020/12/27 07:21:47;;;;;;;1.17;0.43;;;;;;;16.82;59.01;98253.69;4819625;29;20034;-77
2020/12/27 07:24:12;;;;;;;0.43;0.40;;;;;;;16.81;59.28;98234.69;4838417;29;20022;-77
2020/12/27 07:26:44;;;;;;;1.08;0.50;;;;;;;16.82;58.67;98245.91;4838232;29;20105;-77
2020/12/27 07:29:13;;;;;;;0.52;0.35;;;;;;;16.83;58.87;98243.25;4837274;29;20039;-77
2020/12/27 07:31:40;;;;;;;2.95;0.40;;;;;;;16.83;58.82;98231.97;4839811;29;20473;-78
2020/12/27 07:34:07;;;;;;;0.77;0.40;;;;;;;16.84;58.96;98212.91;4842029;29;20034;-78
2020/12/27 07:36:33;;;;;;;0.70;0.40;;;;;;;16.82;59.20;98210.38;4839227;29;20094;-78
2020/12/27 07:39:01;;;;;;;0.30;0.30;;;;;;;16.83;59.03;98206.00;4838897;29;20077;-77
2020/12/27 07:41:32;;;;;;;0.85;0.40;;;;;;;16.83;59.05;98222.47;4835383;29;20050;-80
2020/12/27 07:43:58;;;;;;;0.95;0.30;;;;;;;16.85;58.49;98193.78;4842335;29;20037;-77
2020/12/27 07:46:25;;;;;;;0.98;0.40;;;;;;;16.85;58.96;98191.19;4826956;29;20038;-77
2020/12/27 07:48:50;;;;;;;0.55;0.40;;;;;;;16.85;59.09;98176.47;4839938;29;20046;-78
2020/12/27 07:51:18;;;;;;;0.57;0.40;;;;;;;16.85;58.93;98178.22;4837795;29;20104;-78
2020/12/27 07:53:52;;;;;;;0.77;0.45;;;;;;;16.86;58.71;98157.38;4839995;29;20038;-77
2020/12/27 07:56:26;;;;;;;0.82;0.30;;;;;;;16.86;58.93;98143.53;4841102;29;20053;-77
2020/12/27 07:58:52;;;;;;;;;;;;;;;16.86;58.86;98123.59;4838316;29;20042;-78
2020/12/27 08:01:19;;;;;;;2.60;0.50;;;;;;;16.86;58.86;98112.38;4838185;29;19920;-78
2020/12/27 08:03:49;;;;;;;0.57;0.40;;;;;;;16.86;59.09;98120.16;4840034;29;20041;-77
2020/12/27 08:06:17;;;;;;;0.60;0.30;;;;;;;16.86;58.48;98114.97;4841574;29;20045;-77
2020/12/27 08:08:43;;;;;;;0.30;0.25;;;;;;;16.87;58.66;98101.06;4841736;29;20490;-77
2020/12/27 08:11:18;;;;;;;0.73;0.40;;;;;;;16.86;58.75;98099.38;4838508;29;20033;-77
2020/12/27 08:13:49;;;;;;;0.75;0.30;;;;;;;16.86;59.08;98073.41;4838347;29;20034;-77
2020/12/27 08:16:15;;;;;;;4.30;0.40;;;;;;;16.91;58.21;98083.56;4837356;29;20023;-76
2020/12/27 08:18:40;;;;;;;0.38;0.28;;;;;;;16.96;58.02;98061.66;4838746;29;20643;-76
2020/12/27 08:21:06;;;;;;;1.33;0.43;;;;;;;17.02;57.92;98071.69;4839676;29;20463;-76
2020/12/27 08:23:31;;;;;;;4.78;0.85;;;;;;;17.03;57.71;98059.56;4842198;29;20045;-76
2020/12/27 08:25:57;;;;;;;10.07;1.00;;;;;;;16.99;59.19;98051.09;4836748;29;20038;-76
2020/12/27 08:28:23;;;;;;;13.18;0.88;;;;;;;16.92;59.68;98047.13;4839838;29;20044;-77
2020/12/27 08:30:48;;;;;;;3.30;0.70;;;;;;;16.88;59.75;98035.22;4835107;29;20401;-75
2020/12/27 08:33:18;;;;;;;5.70;0.70;;;;;;;16.84;59.91;98039.72;4835188;29;20041;-75
2020/12/27 08:35:46;;;;;;;7.43;0.95;;;;;;;16.82;60.10;98017.34;4839263;29;20118;-75
2020/12/27 08:38:18;;;;;;;1.75;0.50;;;;;;;16.81;60.46;98026.91;4839543;29;20029;-76
2020/12/27 08:40:52;;;;;;;1.67;0.40;;;;;;;16.79;60.36;98038.25;4837915;29;20138;-76
2020/12/27 08:43:33;;;;;;;1.98;0.32;;;;;;;16.77;59.95;98027.09;4841623;29;20477;-76
2020/12/27 08:46:05;;;;;;;2.72;0.50;;;;;;;16.77;60.24;98007.16;4837948;29;20030;-75
2020/12/27 08:48:35;;;;;;;2.85;0.50;;;;;;;16.77;60.39;98012.34;4833144;29;20034;-76
2020/12/27 08:51:03;;;;;;;2.97;0.52;;;;;;;16.77;60.71;97996.78;4837598;29;20478;-77
2020/12/27 08:53:32;;;;;;;1.77;0.40;;;;;;;16.74;60.55;97978.72;4835883;29;20066;-77
2020/12/27 08:56:00;;;;;;;3.03;0.47;;;;;;;16.76;60.57;97981.25;4840506;29;20026;-77
2020/12/27 08:58:26;;;;;;;2.90;0.40;;;;;;;16.76;60.67;98000.28;4840485;29;20026;-77
2020/12/27 09:00:51;;;;;;;2.05;0.30;;;;;;;16.75;60.87;97974.41;4836605;29;20042;-77
2020/12/27 09:03:17;;;;;;;0.40;0.30;;;;;;;16.76;60.74;97968.28;4826697;29;20090;-77
2020/12/27 09:05:42;;;;;;;1.00;0.30;;;;;;;16.75;60.66;97967.44;4836542;29;20044;-77
2020/12/27 09:08:19;;;;;;;1.45;0.40;;;;;;;16.75;60.51;97966.63;4837216;29;20058;-77
2020/12/27 09:10:45;;;;;;;0.88;0.40;;;;;;;16.75;60.56;97962.25;4839280;29;20040;-78
2020/12/27 09:13:12;;;;;;;1.50;0.38;;;;;;;16.78;60.44;97950.88;4845333;29;20121;-76
2020/12/27 09:15:43;;;;;;;3.05;0.40;;;;;;;16.79;59.80;97935.22;4835405;29;20058;-76
2020/12/27 09:18:11;;;;;;;0.95;0.57;;;;;;;16.81;60.13;97932.53;4839685;29;20040;-76
2020/12/27 09:20:38;;;;;;;1.17;0.60;;;;;;;16.83;59.20;97935.91;4834233;29;20030;-75
2020/12/27 09:23:13;;;;;;;1.50;0.50;;;;;;;16.89;59.13;97908.78;4838313;29;20460;-75
2020/12/27 09:25:40;;;;;;;0.60;0.30;;;;;;;16.88;59.00;97912.31;4838068;29;20174;-75
2020/12/27 09:28:14;;;;;;;4.38;0.40;;;;;;;16.85;60.23;97895.09;4832971;29;20505;-75
2020/12/27 09:30:41;;;;;;;2.65;0.45;;;;;;;16.83;60.31;97905.59;4841679;29;20030;-75
2020/12/27 09:33:07;;;;;;;3.85;0.60;;;;;;;16.80;60.41;97871.97;4837950;29;20049;-77
2020/12/27 09:35:32;;;;;;;2.67;0.40;;;;;;;16.80;60.42;97889.31;4836858;29;20038;-76
2020/12/27 09:37:58;;;;;;;3.45;0.40;;;;;;;16.80;59.96;97882.38;4837711;29;20038;-75
2020/12/27 09:40:23;;;;;;;0.65;0.30;;;;;;;16.84;60.15;97872.66;4828429;29;20045;-76
2020/12/27 09:43:00;;;;;;;0.75;0.40;;;;;;;16.84;59.97;97872.66;4840618;29;20054;-76
2020/12/27 09:45:25;;;;;;;1.50;0.50;;;;;;;16.89;59.74;97849.03;4835203;29;20022;-76
2020/12/27 09:47:53;;;;;;;1.95;0.32;;;;;;;16.91;59.83;97861.00;4823171;29;20032;-76
2020/12/27 09:50:36;;;;;;;2.00;0.35;;;;;;;16.89;60.42;97849.03;4837286;29;20030;-74
2020/12/27 09:53:04;;;;;;;1.15;0.38;;;;;;;16.89;60.76;97857.66;4833398;29;20036;-74
2020/12/27 09:55:29;;;;;;;0.47;0.30;;;;;;;16.90;60.59;97843.78;4834352;29;20049;-74
2020/12/27 09:57:55;;;;;;;0.75;0.40;;;;;;;16.90;60.85;97864.56;4838705;29;20104;-75
2020/12/27 10:00:22;;;;;;;2.80;0.40;;;;;;;16.90;60.56;97825.59;4835263;29;20049;-75
2020/12/27 10:02:48;;;;;;;1.58;0.30;;;;;;;16.91;60.77;97811.66;4838009;29;20122;-74
2020/12/27 10:05:14;;;;;;;4.13;0.45;;;;;;;16.90;60.73;97822.13;4825504;29;20095;-75
2020/12/27 10:07:40;;;;;;;1.02;0.30;;;;;;;16.88;61.04;97811.00;4840190;29;20054;-74
2020/12/27 10:10:07;;;;;;;1.50;0.40;;;;;;;16.87;61.15;97820.53;4829622;29;20089;-74
2020/12/27 10:12:33;;;;;;;2.65;0.43;;;;;;;16.86;61.02;97803.31;4809326;29;20486;-74
2020/12/27 10:14:59;;;;;;;5.07;0.50;;;;;;;16.86;61.21;97782.53;4841842;29;20036;-74
2020/12/27 10:17:24;;;;;;;2.08;0.50;;;;;;;16.85;60.96;97775.63;4831412;29;20035;-75
2020/12/27 10:19:50;;;;;;;4.40;0.40;;;;;;;16.85;61.12;97776.50;4829788;29;20045;-75
2020/12/27 10:22:15;;;;;;;0.40;0.20;;;;;;;16.84;61.21;97764.41;4841692;29;20121;-75
2020/12/27 10:24:41;;;;;;;1.27;0.40;;;;;;;16.84;61.06;97773.97;4825090;29;20030;-75
2020/12/27 10:27:07;;;;;;;0.63;0.30;;;;;;;16.84;61.28;97761.00;4840409;29;20117;-75
2020/12/27 10:29:33;;;;;;;0.90;0.40;;;;;;;16.85;61.29;97736.69;4810579;29;20083;-75
2020/12/27 10:32:01;;;;;;;0.85;0.60;;;;;;;16.85;61.41;97754.84;4838791;29;20061;-76
2020/12/27 10:34:27;;;;;;;3.88;0.63;;;;;;;16.83;61.38;97721.19;4825146;29;20049;-76
2020/12/27 10:36:55;;;;;;;2.80;1.40;;;;;;;16.83;61.50;97725.53;4839591;29;20513;-75
2020/12/27 10:39:21;;;;;;;2.42;1.30;;;;;;;16.82;61.46;97740.28;4837946;29;20041;-75
2020/12/27 10:41:48;;;;;;;1.83;1.13;;;;;;;16.82;61.72;97711.72;4838566;29;20136;-75
2020/12/27 10:44:15;;;;;;;1.83;1.30;;;;;;;16.81;61.62;97741.22;4838964;29;20042;-75
2020/12/27 10:46:41;;;;;;;2.15;1.20;;;;;;;16.81;61.70;97722.19;4840623;29;20037;-75
2020/12/27 10:49:07;;;;;;;3.08;1.33;;;;;;;16.81;61.95;97709.19;4841485;29;20037;-75
2020/12/27 10:51:40;;;;;;;3.72;1.55;;;;;;;16.81;61.87;97733.44;4823308;29;20045;-75
2020/12/27 10:54:06;;;;;;;3.88;1.30;;;;;;;16.81;61.81;97727.38;4840459;29;20057;-76
2020/12/27 10:56:32;;;;;;;3.13;1.20;;;;;;;16.80;61.80;97721.34;4839841;29;20486;-76
2020/12/27 10:58:59;;;;;;;2.10;1.23;;;;;;;16.78;61.93;97733.56;4837433;29;20038;-76
2020/12/27 11:01:24;;;;;;;6.15;1.30;;;;;;;16.79;62.02;97739.63;4840365;29;20038;-76
2020/12/27 11:03:50;;;;;;;1.52;0.98;;;;;;;16.77;62.15;97723.28;4843448;29;20064;-76
2020/12/27 11:06:15;;;;;;;1.48;1.10;;;;;;;16.79;61.84;97719.66;4811380;29;20042;-76
2020/12/27 11:08:41;;;;;;;2.00;1.15;;;;;;;16.79;61.74;97718.84;4821329;29;20054;-76
2020/12/27 11:11:06;;;;;;;1.45;1.17;;;;;;;16.77;61.87;97725.88;4845199;29;20506;-77
2020/12/27 11:13:31;;;;;;;1.20;0.98;;;;;;;16.74;62.47;97718.22;4844073;29;20121;-77
2020/12/27 11:15:57;;;;;;;2.75;1.10;;;;;;;16.77;61.92;97726.69;4843297;29;20041;-77
2020/12/27 11:18:22;;;;;;;1.17;1.08;;;;;;;16.77;61.98;97718.09;4844340;29;20042;-77
2020/12/27 11:20:48;;;;;;;1.98;1.00;;;;;;;16.78;62.23;97715.38;4842025;29;20129;-77
2020/12/27 11:23:13;;;;;;;2.15;1.23;;;;;;;16.79;62.13;97717.06;4841858;29;20040;-77
2020/12/27 11:25:39;;;;;;;2.00;1.40;;;;;;;16.79;62.21;97717.06;4844178;29;20030;-77
2020/12/27 11:28:04;;;;;;;2.40;1.27;;;;;;;16.81;61.96;97706.59;4838631;29;20060;-77
2020/12/27 11:30:30;;;;;;;6.25;1.88;;;;;;;16.83;62.36;97715.16;4810082;29;20095;-77
2020/12/27 11:32:55;;;;;;;7.55;2.95;;;;;;;16.82;62.13;97719.50;4844552;29;20393;-80
2020/12/27 11:35:21;;;;;;;6.60;2.50;;;;;;;16.84;62.04;97711.66;4825470;29;20057;-79
2020/12/27 11:37:46;;;;;;;7.55;2.25;;;;;;;16.88;62.25;97712.31;4844507;29;20037;-78